sensor_id;sensor_type;location;lat;lon;timestamp;pressure;altitude;pressure_sealevel;temperature;humidity
12213;BME280;6169;44.158;22.788;2023-07-31T07:27:33;100581.03;;;21.57;82.45
12213;BME280;6169;44.158;22.788;2023-07-31T07:32:35;100596.47;;;21.36;81.74
12213;BME280;6169;44.158;22.788;2023-07-31T07:37:37;100583.84;;;21.89;80.63
12213;BME280;6169;44.158;22.788;2023-07-31T07:42:41;100589.38;;;21.66;81.00
12213;BME280;6169;44.158;22.788;2023-07-31T07:47:43;100582.91;;;21.93;78.36
12213;BME280;6169;44.158;22.788;2023-07-31T07:52:45;100588.81;;;22.00;76.94
12213;BME280;6169;44.158;22.788;2023-07-31T07:57:49;100594.75;;;22.47;78.28
12213;BME280;6169;44.158;22.788;2023-07-31T08:02:51;100599.91;;;22.32;76.19
12213;BME280;6169;44.158;22.788;2023-07-31T08:07:54;100592.78;;;22.48;77.02
12213;BME280;6169;44.158;22.788;2023-07-31T08:12:58;100600.19;;;22.61;74.11
12213;BME280;6169;44.158;22.788;2023-07-31T08:18:00;100603.53;;;22.89;73.28
12213;BME280;6169;44.158;22.788;2023-07-31T08:23:02;100612.06;;;23.02;72.10
12213;BME280;6169;44.158;22.788;2023-07-31T08:28:06;100604.19;;;22.86;71.58
12213;BME280;6169;44.158;22.788;2023-07-31T08:33:08;100579.94;;;23.09;68.85
12213;BME280;6169;44.158;22.788;2023-07-31T08:38:12;100606.34;;;23.15;70.54
12213;BME280;6169;44.158;22.788;2023-07-31T08:43:15;100589.38;;;23.00;70.53
12213;BME280;6169;44.158;22.788;2023-07-31T08:48:21;100596.41;;;23.23;70.72
12213;BME280;6169;44.158;22.788;2023-07-31T08:53:24;100595.06;;;22.94;69.54
12213;BME280;6169;44.158;22.788;2023-07-31T08:58:31;100596.41;;;23.23;67.30
12213;BME280;6169;44.158;22.788;2023-07-31T09:03:34;100583.06;;;23.43;67.61
12213;BME280;6169;44.158;22.788;2023-07-31T09:08:40;100592.97;;;23.35;63.72
12213;BME280;6169;44.158;22.788;2023-07-31T09:13:46;100606.25;;;23.64;64.32
12213;BME280;6169;44.158;22.788;2023-07-31T09:18:55;100595.28;;;23.76;63.07
12213;BME280;6169;44.158;22.788;2023-07-31T09:23:58;100588.41;;;23.74;64.71
12213;BME280;6169;44.158;22.788;2023-07-31T09:29:05;100572.53;;;23.92;62.30
12213;BME280;6169;44.158;22.788;2023-07-31T09:34:08;100583.75;;;24.21;62.31
12213;BME280;6169;44.158;22.788;2023-07-31T09:39:12;100578.69;;;24.23;61.80
12213;BME280;6169;44.158;22.788;2023-07-31T09:44:17;100571.06;;;24.03;61.70
12213;BME280;6169;44.158;22.788;2023-07-31T09:49:19;100578.28;;;24.34;60.69
12213;BME280;6169;44.158;22.788;2023-07-31T09:54:22;100580.81;;;24.56;61.40
12213;BME280;6169;44.158;22.788;2023-07-31T09:59:25;100569.84;;;24.60;60.30
12213;BME280;6169;44.158;22.788;2023-07-31T10:04:29;100576.38;;;24.25;59.26
12213;BME280;6169;44.158;22.788;2023-07-31T10:09:33;100563.34;;;24.17;59.83
12213;BME280;6169;44.158;22.788;2023-07-31T10:14:38;100566.25;;;24.30;60.19
12213;BME280;6169;44.158;22.788;2023-07-31T10:19:42;100571.63;;;24.35;61.08
12213;BME280;6169;44.158;22.788;2023-07-31T10:24:45;100544.75;;;24.09;60.14
12213;BME280;6169;44.158;22.788;2023-07-31T10:29:50;100564.75;;;24.62;58.62
12213;BME280;6169;44.158;22.788;2023-07-31T10:34:54;100557.00;;;24.46;58.02
12213;BME280;6169;44.158;22.788;2023-07-31T10:39:59;100542.25;;;24.55;60.60
12213;BME280;6169;44.158;22.788;2023-07-31T10:45:05;100556.91;;;25.14;58.69
12213;BME280;6169;44.158;22.788;2023-07-31T10:50:16;100548.13;;;25.67;57.51
12213;BME280;6169;44.158;22.788;2023-07-31T10:55:30;100538.81;;;25.29;56.41
12213;BME280;6169;44.158;22.788;2023-07-31T11:00:37;100548.91;;;25.13;56.83
12213;BME280;6169;44.158;22.788;2023-07-31T11:05:47;100527.81;;;25.33;57.04
12213;BME280;6169;44.158;22.788;2023-07-31T11:10:51;100509.00;;;24.67;57.41
12213;BME280;6169;44.158;22.788;2023-07-31T11:16:08;100538.44;;;24.59;61.22
12213;BME280;6169;44.158;22.788;2023-07-31T11:21:12;100534.50;;;24.69;58.95
12213;BME280;6169;44.158;22.788;2023-07-31T11:26:16;100533.28;;;25.21;58.13
12213;BME280;6169;44.158;22.788;2023-07-31T11:31:20;100541.50;;;25.38;55.77
12213;BME280;6169;44.158;22.788;2023-07-31T11:36:22;100540.09;;;26.11;53.59
12213;BME280;6169;44.158;22.788;2023-07-31T11:41:25;100546.41;;;26.20;53.19
12213;BME280;6169;44.158;22.788;2023-07-31T11:46:32;100530.16;;;25.43;53.84
12213;BME280;6169;44.158;22.788;2023-07-31T11:51:35;100527.56;;;25.59;53.61
12213;BME280;6169;44.158;22.788;2023-07-31T11:56:38;100520.59;;;25.86;53.58
12213;BME280;6169;44.158;22.788;2023-07-31T12:01:41;100522.91;;;25.96;54.39
12213;BME280;6169;44.158;22.788;2023-07-31T12:06:44;100365.50;;;24.62;52.61
12213;BME280;6169;44.158;22.788;2023-07-31T12:11:47;100493.25;;;25.22;53.72
12213;BME280;6169;44.158;22.788;2023-07-31T12:16:54;100497.16;;;25.54;52.99
12213;BME280;6169;44.158;22.788;2023-07-31T12:21:58;100518.22;;;25.43;53.83
12213;BME280;6169;44.158;22.788;2023-07-31T12:27:00;100491.47;;;25.84;53.92
12213;BME280;6169;44.158;22.788;2023-07-31T12:32:24;100495.81;;;25.72;52.75
12213;BME280;6169;44.158;22.788;2023-07-31T12:37:29;100474.47;;;25.64;50.01
12213;BME280;6169;44.158;22.788;2023-07-31T12:42:33;100487.75;;;25.92;48.66
12213;BME280;6169;44.158;22.788;2023-07-31T12:47:37;100483.34;;;26.15;47.99
12213;BME280;6169;44.158;22.788;2023-07-31T12:52:39;100490.09;;;26.39;47.13
12213;BME280;6169;44.158;22.788;2023-07-31T12:57:41;100487.28;;;26.26;47.81
12213;BME280;6169;44.158;22.788;2023-07-31T13:02:45;100472.78;;;26.21;46.81
12213;BME280;6169;44.158;22.788;2023-07-31T13:07:48;100472.78;;;26.21;47.46
12213;BME280;6169;44.158;22.788;2023-07-31T13:12:50;100468.47;;;26.48;45.05
12213;BME280;6169;44.158;22.788;2023-07-31T13:17:54;100459.72;;;26.74;46.29
12213;BME280;6169;44.158;22.788;2023-07-31T13:22:56;100459.53;;;26.30;45.55
12213;BME280;6169;44.158;22.788;2023-07-31T13:27:59;100462.59;;;26.37;45.81
12213;BME280;6169;44.158;22.788;2023-07-31T13:33:02;100466.25;;;26.54;45.98
12213;BME280;6169;44.158;22.788;2023-07-31T13:38:05;100449.22;;;26.83;44.72
12213;BME280;6169;44.158;22.788;2023-07-31T13:43:07;100325.50;;;26.07;45.49
12213;BME280;6169;44.158;22.788;2023-07-31T13:48:11;100448.66;;;26.78;44.37
12213;BME280;6169;44.158;22.788;2023-07-31T13:53:13;100458.97;;;26.89;43.99
12213;BME280;6169;44.158;22.788;2023-07-31T13:58:15;100449.56;;;26.94;43.15
12213;BME280;6169;44.158;22.788;2023-07-31T14:03:19;100427.69;;;26.68;43.88
12213;BME280;6169;44.158;22.788;2023-07-31T14:08:21;100442.28;;;26.77;43.76
12213;BME280;6169;44.158;22.788;2023-07-31T14:13:24;100452.59;;;26.48;43.34
12213;BME280;6169;44.158;22.788;2023-07-31T14:18:28;100457.94;;;26.94;43.12
12213;BME280;6169;44.158;22.788;2023-07-31T14:23:30;100469.09;;;26.82;42.70
12213;BME280;6169;44.158;22.788;2023-07-31T14:28:32;100468.63;;;26.92;41.92
12213;BME280;6169;44.158;22.788;2023-07-31T14:33:36;100475.00;;;26.52;43.07
12213;BME280;6169;44.158;22.788;2023-07-31T14:38:38;100450.19;;;26.75;42.76
12213;BME280;6169;44.158;22.788;2023-07-31T14:43:41;100459.31;;;26.60;42.57
12213;BME280;6169;44.158;22.788;2023-07-31T14:48:44;100453.25;;;26.33;43.56
12213;BME280;6169;44.158;22.788;2023-07-31T14:53:47;100465.16;;;26.42;43.31
12213;BME280;6169;44.158;22.788;2023-07-31T14:58:49;100446.53;;;26.46;43.59
12213;BME280;6169;44.158;22.788;2023-07-31T15:03:53;100444.09;;;26.45;43.50
12213;BME280;6169;44.158;22.788;2023-07-31T15:08:55;100435.63;;;26.17;44.27
12213;BME280;6169;44.158;22.788;2023-07-31T15:13:57;100428.69;;;26.23;45.01
12213;BME280;6169;44.158;22.788;2023-07-31T15:19:01;100431.81;;;25.97;44.28
12213;BME280;6169;44.158;22.788;2023-07-31T15:24:04;100424.03;;;26.27;43.58
12213;BME280;6169;44.158;22.788;2023-07-31T15:29:07;100424.97;;;26.31;43.71
12213;BME280;6169;44.158;22.788;2023-07-31T15:34:14;100422.16;;;26.43;44.20
12213;BME280;6169;44.158;22.788;2023-07-31T15:39:17;100436.47;;;26.17;44.17
12213;BME280;6169;44.158;22.788;2023-07-31T15:44:19;100427.19;;;26.01;44.28
12213;BME280;6169;44.158;22.788;2023-07-31T15:49:23;100434.53;;;25.60;46.18
12213;BME280;6169;44.158;22.788;2023-07-31T15:54:26;100434.97;;;25.95;45.95
12213;BME280;6169;44.158;22.788;2023-07-31T15:59:28;100443.78;;;25.97;45.93
12213;BME280;6169;44.158;22.788;2023-07-31T16:04:32;100425.81;;;25.37;46.25
12213;BME280;6169;44.158;22.788;2023-07-31T16:09:35;100443.31;;;25.37;46.36
12213;BME280;6169;44.158;22.788;2023-07-31T16:14:37;100435.59;;;25.55;46.83
12213;BME280;6169;44.158;22.788;2023-07-31T16:19:41;100428.53;;;25.58;47.44
12213;BME280;6169;44.158;22.788;2023-07-31T16:24:44;100436.72;;;25.09;48.67
12213;BME280;6169;44.158;22.788;2023-07-31T16:29:46;100446.22;;;24.87;48.48
12213;BME280;6169;44.158;22.788;2023-07-31T16:34:50;100436.84;;;24.49;49.15
12213;BME280;6169;44.158;22.788;2023-07-31T16:39:52;100438.41;;;24.59;49.54
12213;BME280;6169;44.158;22.788;2023-07-31T16:44:55;100436.84;;;24.49;49.76
12213;BME280;6169;44.158;22.788;2023-07-31T16:49:58;100452.38;;;24.50;49.67
12213;BME280;6169;44.158;22.788;2023-07-31T16:55:01;100442.28;;;24.46;51.10
12213;BME280;6169;44.158;22.788;2023-07-31T17:00:04;100458.53;;;23.97;52.67
12213;BME280;6169;44.158;22.788;2023-07-31T17:05:08;100461.31;;;23.97;52.70
12213;BME280;6169;44.158;22.788;2023-07-31T17:10:11;100465.91;;;23.93;53.01
12213;BME280;6169;44.158;22.788;2023-07-31T17:15:13;100461.97;;;23.94;53.12
12213;BME280;6169;44.158;22.788;2023-07-31T17:20:17;100472.34;;;23.76;53.93
12213;BME280;6169;44.158;22.788;2023-07-31T17:25:20;100476.97;;;23.37;55.25
12213;BME280;6169;44.158;22.788;2023-07-31T17:30:22;100470.44;;;23.59;54.52
12213;BME280;6169;44.158;22.788;2023-07-31T17:35:26;100475.19;;;23.32;55.77
12213;BME280;6169;44.158;22.788;2023-07-31T17:40:28;100486.97;;;23.21;57.15
12213;BME280;6169;44.158;22.788;2023-07-31T17:45:30;100482.09;;;23.00;57.92
12213;BME280;6169;44.158;22.788;2023-07-31T17:50:36;100495.44;;;22.89;59.37
12213;BME280;6169;44.158;22.788;2023-07-31T17:55:40;100488.72;;;22.73;59.70
12213;BME280;6169;44.158;22.788;2023-07-31T18:00:43;100445.59;;;21.75;60.47
12213;BME280;6169;44.158;22.788;2023-07-31T18:05:46;100504.53;;;22.15;59.40
12213;BME280;6169;44.158;22.788;2023-07-31T18:10:49;100508.53;;;21.69;61.50
12213;BME280;6169;44.158;22.788;2023-07-31T18:15:51;100518.09;;;21.94;60.07
12213;BME280;6169;44.158;22.788;2023-07-31T18:20:55;100513.59;;;21.67;60.59
12213;BME280;6169;44.158;22.788;2023-07-31T18:25:57;100522.56;;;21.28;62.91
12213;BME280;6169;44.158;22.788;2023-07-31T18:31:00;100534.16;;;20.80;64.59
12213;BME280;6169;44.158;22.788;2023-07-31T18:36:05;100536.22;;;20.88;64.45
12213;BME280;6169;44.158;22.788;2023-07-31T18:41:07;100525.53;;;20.95;61.73
12213;BME280;6169;44.158;22.788;2023-07-31T18:46:10;100543.78;;;20.68;62.86
12213;BME280;6169;44.158;22.788;2023-07-31T18:51:14;100547.78;;;20.62;62.10
12213;BME280;6169;44.158;22.788;2023-07-31T18:56:17;100540.63;;;20.20;63.64
12213;BME280;6169;44.158;22.788;2023-07-31T19:01:19;100548.72;;;20.44;61.33
12213;BME280;6169;44.158;22.788;2023-07-31T19:06:23;100559.41;;;20.04;62.04
12213;BME280;6169;44.158;22.788;2023-07-31T19:11:25;100562.78;;;19.68;63.00
12213;BME280;6169;44.158;22.788;2023-07-31T19:16:27;100567.41;;;19.73;64.20
12213;BME280;6169;44.158;22.788;2023-07-31T19:21:31;100577.78;;;19.62;61.27
12213;BME280;6169;44.158;22.788;2023-07-31T19:26:33;100579.41;;;19.63;60.91
12213;BME280;6169;44.158;22.788;2023-07-31T19:31:35;100582.59;;;19.70;60.15
12213;BME280;6169;44.158;22.788;2023-07-31T19:36:39;100583.38;;;19.57;60.17
12213;BME280;6169;44.158;22.788;2023-07-31T19:41:42;100592.09;;;19.64;58.90
12213;BME280;6169;44.158;22.788;2023-07-31T19:46:45;100588.06;;;19.56;60.53
12213;BME280;6169;44.158;22.788;2023-07-31T19:51:49;100588.75;;;19.48;58.79
12213;BME280;6169;44.158;22.788;2023-07-31T19:56:53;100580.00;;;19.60;58.82
12213;BME280;6169;44.158;22.788;2023-07-31T20:01:56;100586.88;;;19.44;61.46
12213;BME280;6169;44.158;22.788;2023-07-31T20:07:00;100574.34;;;18.94;61.02
12213;BME280;6169;44.158;22.788;2023-07-31T20:12:03;100573.78;;;18.74;62.46
12213;BME280;6169;44.158;22.788;2023-07-31T20:17:05;100582.59;;;18.52;62.99
12213;BME280;6169;44.158;22.788;2023-07-31T20:22:09;100579.59;;;18.72;62.11
12213;BME280;6169;44.158;22.788;2023-07-31T20:27:11;100578.34;;;18.83;61.35
12213;BME280;6169;44.158;22.788;2023-07-31T20:32:14;100584.59;;;18.65;62.29
12213;BME280;6169;44.158;22.788;2023-07-31T20:37:17;100586.09;;;18.81;62.13
12213;BME280;6169;44.158;22.788;2023-07-31T20:42:20;100590.56;;;18.77;61.68
12213;BME280;6169;44.158;22.788;2023-07-31T20:47:24;100587.91;;;18.91;61.71
12213;BME280;6169;44.158;22.788;2023-07-31T20:52:27;100583.59;;;19.04;60.41
12213;BME280;6169;44.158;22.788;2023-07-31T20:57:30;100590.94;;;18.89;64.25
12213;BME280;6169;44.158;22.788;2023-07-31T21:02:32;100596.50;;;18.84;63.14
12213;BME280;6169;44.158;22.788;2023-07-31T21:07:36;100595.94;;;18.63;64.05
12213;BME280;6169;44.158;22.788;2023-07-31T21:12:39;100547.78;;;17.83;69.63
12213;BME280;6169;44.158;22.788;2023-07-31T21:17:41;100594.59;;;17.73;66.36
12213;BME280;6169;44.158;22.788;2023-07-31T21:22:45;100595.31;;;17.89;67.83
12213;BME280;6169;44.158;22.788;2023-07-31T21:27:47;100592.00;;;18.21;67.55
12213;BME280;6169;44.158;22.788;2023-07-31T21:32:49;100596.94;;;18.19;65.46
12213;BME280;6169;44.158;22.788;2023-07-31T21:37:53;100598.63;;;18.44;72.03
12213;BME280;6169;44.158;22.788;2023-07-31T21:42:56;100607.03;;;18.53;68.90
12213;BME280;6169;44.158;22.788;2023-07-31T21:47:58;100606.91;;;19.11;67.95
12213;BME280;6169;44.158;22.788;2023-07-31T21:53:01;100620.03;;;19.57;61.21
12213;BME280;6169;44.158;22.788;2023-07-31T21:58:04;100626.03;;;19.03;59.48
12213;BME280;6169;44.158;22.788;2023-07-31T22:03:06;100620.84;;;19.20;64.22
12213;BME280;6169;44.158;22.788;2023-07-31T22:08:09;100623.44;;;20.34;64.36
12213;BME280;6169;44.158;22.788;2023-07-31T22:13:12;100622.53;;;20.05;64.46
12213;BME280;6169;44.158;22.788;2023-07-31T22:18:14;100627.25;;;20.38;65.26
12213;BME280;6169;44.158;22.788;2023-07-31T22:23:18;100614.56;;;20.23;62.55
12213;BME280;6169;44.158;22.788;2023-07-31T22:28:20;100618.22;;;20.18;67.77
12213;BME280;6169;44.158;22.788;2023-07-31T22:33:22;100613.13;;;19.93;62.82
12213;BME280;6169;44.158;22.788;2023-07-31T22:38:26;100624.88;;;19.47;70.99
12213;BME280;6169;44.158;22.788;2023-07-31T22:43:28;100624.81;;;19.52;68.84
12213;BME280;6169;44.158;22.788;2023-07-31T22:48:30;100628.38;;;19.33;69.71
12213;BME280;6169;44.158;22.788;2023-07-31T22:53:34;100615.69;;;19.13;67.44
12213;BME280;6169;44.158;22.788;2023-07-31T22:58:36;100613.63;;;18.57;69.52
12213;BME280;6169;44.158;22.788;2023-07-31T23:03:38;100609.06;;;19.14;69.05
12213;BME280;6169;44.158;22.788;2023-07-31T23:08:42;100593.00;;;18.79;70.89
12213;BME280;6169;44.158;22.788;2023-07-31T23:13:44;100591.53;;;18.86;73.12
12213;BME280;6169;44.158;22.788;2023-07-31T23:18:46;100591.16;;;18.45;72.60
12213;BME280;6169;44.158;22.788;2023-07-31T23:23:50;100581.81;;;18.94;73.95
12213;BME280;6169;44.158;22.788;2023-07-31T23:28:52;100580.75;;;19.47;69.46
12213;BME280;6169;44.158;22.788;2023-07-31T23:33:54;100578.38;;;19.02;71.47
12213;BME280;6169;44.158;22.788;2023-07-31T23:38:58;100573.03;;;19.11;72.30
12213;BME280;6169;44.158;22.788;2023-07-31T23:44:01;100572.97;;;19.16;69.26
12213;BME280;6169;44.158;22.788;2023-07-31T23:49:03;100563.63;;;19.12;71.01
12213;BME280;6169;44.158;22.788;2023-07-31T23:54:08;100568.19;;;19.03;74.29
12213;BME280;6169;44.158;22.788;2023-07-31T23:59:11;100561.63;;;18.80;72.27
